Terminal Aerodrome Forecast
Issued by NWS

Home | Current Version | Previous Version | Text Only | Print | Product List | Glossary On
Versions: 1 2 3 4 5 6 7 8 9 10 11 12
000
FTAK31 PAFA 210520
TAFABT
TAF
PABT 210520Z 2106/2206 34005KT P6SM FEW100 SCT200
     FM211500 36005KT P6SM VCSH SCT035 BKN050 OVC100
     FM211800 01005KT 6SM -SN BR SCT025 BKN035 OVC050
     FM212100 01005KT 1 1/2SM -SN BR SCT015 BKN025 OVC035=

USA.gov is the U.S. government's official web portal to all federal, state and local government web resources and services.